sensor_id;sensor_type;location;lat;lon;timestamp;temperature;humidity
76567;DHT22;65428;53.194;6.132;2024-02-14T00:02:08;6.70;99.90
76567;DHT22;65428;53.194;6.132;2024-02-14T00:04:33;7.00;99.90
76567;DHT22;65428;53.194;6.132;2024-02-14T00:06:59;6.80;99.90
76567;DHT22;65428;53.194;6.132;2024-02-14T00:09:25;6.80;99.90
76567;DHT22;65428;53.194;6.132;2024-02-14T00:11:51;7.10;99.90
76567;DHT22;65428;53.194;6.132;2024-02-14T00:14:17;7.10;99.90
76567;DHT22;65428;53.194;6.132;2024-02-14T00:16:44;7.00;99.90
76567;DHT22;65428;53.194;6.132;2024-02-14T00:19:10;6.90;99.90
76567;DHT22;65428;53.194;6.132;2024-02-14T00:21:36;6.60;99.90
76567;DHT22;65428;53.194;6.132;2024-02-14T00:24:02;7.20;99.90
76567;DHT22;65428;53.194;6.132;2024-02-14T00:26:28;6.90;99.90
76567;DHT22;65428;53.194;6.132;2024-02-14T00:28:54;7.30;99.90
76567;DHT22;65428;53.194;6.132;2024-02-14T00:31:19;7.30;99.90
76567;DHT22;65428;53.194;6.132;2024-02-14T00:33:45;7.30;99.90
76567;DHT22;65428;53.194;6.132;2024-02-14T00:36:11;7.10;99.90
76567;DHT22;65428;53.194;6.132;2024-02-14T00:38:37;7.50;99.90
76567;DHT22;65428;53.194;6.132;2024-02-14T00:41:06;7.00;99.90
76567;DHT22;65428;53.194;6.132;2024-02-14T00:43:32;7.00;99.90
76567;DHT22;65428;53.194;6.132;2024-02-14T00:45:58;7.10;99.90
76567;DHT22;65428;53.194;6.132;2024-02-14T00:48:23;6.90;99.90
76567;DHT22;65428;53.194;6.132;2024-02-14T00:50:49;7.10;99.90
76567;DHT22;65428;53.194;6.132;2024-02-14T00:53:20;7.20;99.90
76567;DHT22;65428;53.194;6.132;2024-02-14T00:55:46;7.10;99.90
76567;DHT22;65428;53.194;6.132;2024-02-14T00:58:12;7.50;99.90
76567;DHT22;65428;53.194;6.132;2024-02-14T01:00:37;7.30;99.90
76567;DHT22;65428;53.194;6.132;2024-02-14T01:03:03;7.10;99.90
76567;DHT22;65428;53.194;6.132;2024-02-14T01:05:29;7.10;99.90
76567;DHT22;65428;53.194;6.132;2024-02-14T01:07:55;7.40;99.90
76567;DHT22;65428;53.194;6.132;2024-02-14T01:10:21;7.40;99.90
76567;DHT22;65428;53.194;6.132;2024-02-14T01:12:47;7.20;99.90
76567;DHT22;65428;53.194;6.132;2024-02-14T01:15:12;7.50;99.90
76567;DHT22;65428;53.194;6.132;2024-02-14T01:17:47;7.50;99.90
76567;DHT22;65428;53.194;6.132;2024-02-14T01:20:19;7.20;99.90
76567;DHT22;65428;53.194;6.132;2024-02-14T01:22:45;7.40;99.90
76567;DHT22;65428;53.194;6.132;2024-02-14T01:25:12;7.60;99.90
76567;DHT22;65428;53.194;6.132;2024-02-14T01:27:38;7.40;99.90
76567;DHT22;65428;53.194;6.132;2024-02-14T01:30:04;7.70;99.90
76567;DHT22;65428;53.194;6.132;2024-02-14T01:32:31;7.30;99.90
76567;DHT22;65428;53.194;6.132;2024-02-14T01:34:59;7.40;99.90
76567;DHT22;65428;53.194;6.132;2024-02-14T01:37:26;7.70;99.90
76567;DHT22;65428;53.194;6.132;2024-02-14T01:39:54;7.40;99.90
76567;DHT22;65428;53.194;6.132;2024-02-14T01:42:20;7.70;99.90
76567;DHT22;65428;53.194;6.132;2024-02-14T01:44:46;7.60;99.90
76567;DHT22;65428;53.194;6.132;2024-02-14T01:47:14;7.60;99.90
76567;DHT22;65428;53.194;6.132;2024-02-14T01:49:43;7.40;99.90
76567;DHT22;65428;53.194;6.132;2024-02-14T01:52:10;7.50;99.90
76567;DHT22;65428;53.194;6.132;2024-02-14T01:54:36;7.60;99.90
76567;DHT22;65428;53.194;6.132;2024-02-14T01:57:02;7.60;99.90
76567;DHT22;65428;53.194;6.132;2024-02-14T01:59:31;7.60;99.90
76567;DHT22;65428;53.194;6.132;2024-02-14T02:01:57;7.60;99.90
76567;DHT22;65428;53.194;6.132;2024-02-14T02:04:23;7.60;99.90
76567;DHT22;65428;53.194;6.132;2024-02-14T02:06:50;7.90;99.90
76567;DHT22;65428;53.194;6.132;2024-02-14T02:09:16;7.80;99.90
76567;DHT22;65428;53.194;6.132;2024-02-14T02:11:49;7.80;99.90
76567;DHT22;65428;53.194;6.132;2024-02-14T02:14:15;7.80;99.90
76567;DHT22;65428;53.194;6.132;2024-02-14T02:16:42;8.10;99.90
76567;DHT22;65428;53.194;6.132;2024-02-14T02:19:09;7.80;99.90
76567;DHT22;65428;53.194;6.132;2024-02-14T02:21:38;7.90;99.90
76567;DHT22;65428;53.194;6.132;2024-02-14T02:24:04;8.00;99.90
76567;DHT22;65428;53.194;6.132;2024-02-14T02:26:30;7.90;99.90
76567;DHT22;65428;53.194;6.132;2024-02-14T02:28:56;8.10;99.90
76567;DHT22;65428;53.194;6.132;2024-02-14T02:31:22;8.20;99.90
76567;DHT22;65428;53.194;6.132;2024-02-14T02:33:48;8.20;99.90
76567;DHT22;65428;53.194;6.132;2024-02-14T02:36:15;7.80;99.90
76567;DHT22;65428;53.194;6.132;2024-02-14T02:39:00;8.10;99.90
76567;DHT22;65428;53.194;6.132;2024-02-14T02:41:25;8.10;99.90
76567;DHT22;65428;53.194;6.132;2024-02-14T02:43:52;8.10;99.90
76567;DHT22;65428;53.194;6.132;2024-02-14T02:46:19;8.60;99.90
76567;DHT22;65428;53.194;6.132;2024-02-14T02:48:45;8.40;99.90
76567;DHT22;65428;53.194;6.132;2024-02-14T02:51:13;8.40;99.90
76567;DHT22;65428;53.194;6.132;2024-02-14T02:53:41;8.70;99.90
76567;DHT22;65428;53.194;6.132;2024-02-14T02:56:06;8.20;99.90
76567;DHT22;65428;53.194;6.132;2024-02-14T02:58:32;8.30;99.90
76567;DHT22;65428;53.194;6.132;2024-02-14T03:00:59;8.50;99.90
76567;DHT22;65428;53.194;6.132;2024-02-14T03:03:24;8.50;99.90
76567;DHT22;65428;53.194;6.132;2024-02-14T03:05:52;8.30;99.90
76567;DHT22;65428;53.194;6.132;2024-02-14T03:08:21;8.30;99.90
76567;DHT22;65428;53.194;6.132;2024-02-14T03:10:47;8.70;99.90
76567;DHT22;65428;53.194;6.132;2024-02-14T03:13:15;8.40;99.90
76567;DHT22;65428;53.194;6.132;2024-02-14T03:15:52;8.40;99.90
76567;DHT22;65428;53.194;6.132;2024-02-14T03:18:18;8.40;99.90
76567;DHT22;65428;53.194;6.132;2024-02-14T03:20:44;8.50;99.90
76567;DHT22;65428;53.194;6.132;2024-02-14T03:23:11;8.50;99.90
76567;DHT22;65428;53.194;6.132;2024-02-14T03:25:37;8.80;99.90
76567;DHT22;65428;53.194;6.132;2024-02-14T03:28:03;8.60;99.90
76567;DHT22;65428;53.194;6.132;2024-02-14T03:30:34;8.60;99.90
76567;DHT22;65428;53.194;6.132;2024-02-14T03:33:01;8.90;99.90
76567;DHT22;65428;53.194;6.132;2024-02-14T03:35:27;8.90;99.90
76567;DHT22;65428;53.194;6.132;2024-02-14T03:37:55;8.90;99.90
76567;DHT22;65428;53.194;6.132;2024-02-14T03:40:21;9.00;99.90
76567;DHT22;65428;53.194;6.132;2024-02-14T03:42:47;8.80;99.90
76567;DHT22;65428;53.194;6.132;2024-02-14T03:45:13;8.60;99.90
76567;DHT22;65428;53.194;6.132;2024-02-14T03:47:40;8.90;99.90
76567;DHT22;65428;53.194;6.132;2024-02-14T03:50:06;9.30;99.90
76567;DHT22;65428;53.194;6.132;2024-02-14T03:52:32;8.90;99.90
76567;DHT22;65428;53.194;6.132;2024-02-14T03:54:59;9.20;99.90
76567;DHT22;65428;53.194;6.132;2024-02-14T03:57:26;9.10;99.90
76567;DHT22;65428;53.194;6.132;2024-02-14T03:59:54;9.10;99.90
76567;DHT22;65428;53.194;6.132;2024-02-14T04:02:21;9.20;99.90
76567;DHT22;65428;53.194;6.132;2024-02-14T04:04:49;9.00;99.90
76567;DHT22;65428;53.194;6.132;2024-02-14T04:07:14;9.30;99.90
76567;DHT22;65428;53.194;6.132;2024-02-14T04:09:40;9.00;99.90
76567;DHT22;65428;53.194;6.132;2024-02-14T04:12:06;9.20;99.90
76567;DHT22;65428;53.194;6.132;2024-02-14T04:14:32;9.00;99.90
76567;DHT22;65428;53.194;6.132;2024-02-14T04:16:58;9.00;99.90
76567;DHT22;65428;53.194;6.132;2024-02-14T04:19:23;9.30;99.90
76567;DHT22;65428;53.194;6.132;2024-02-14T04:21:49;8.90;99.90
76567;DHT22;65428;53.194;6.132;2024-02-14T04:24:15;9.40;99.90
76567;DHT22;65428;53.194;6.132;2024-02-14T04:26:41;9.30;99.90
76567;DHT22;65428;53.194;6.132;2024-02-14T04:29:08;9.20;99.90
76567;DHT22;65428;53.194;6.132;2024-02-14T04:31:34;9.20;99.90
76567;DHT22;65428;53.194;6.132;2024-02-14T04:34:00;9.30;99.90
76567;DHT22;65428;53.194;6.132;2024-02-14T04:36:26;9.20;99.90
76567;DHT22;65428;53.194;6.132;2024-02-14T04:38:52;9.80;99.90
76567;DHT22;65428;53.194;6.132;2024-02-14T04:41:18;9.60;99.90
76567;DHT22;65428;53.194;6.132;2024-02-14T04:43:45;9.30;99.90
76567;DHT22;65428;53.194;6.132;2024-02-14T04:46:10;9.30;99.90
76567;DHT22;65428;53.194;6.132;2024-02-14T04:48:36;9.40;99.90
76567;DHT22;65428;53.194;6.132;2024-02-14T04:51:04;9.50;99.90
76567;DHT22;65428;53.194;6.132;2024-02-14T04:53:32;9.40;99.90
76567;DHT22;65428;53.194;6.132;2024-02-14T04:55:58;9.90;99.90
76567;DHT22;65428;53.194;6.132;2024-02-14T04:58:24;9.50;99.90
76567;DHT22;65428;53.194;6.132;2024-02-14T05:00:51;9.50;99.90
76567;DHT22;65428;53.194;6.132;2024-02-14T05:03:18;9.80;99.90
76567;DHT22;65428;53.194;6.132;2024-02-14T05:05:44;9.50;99.90
76567;DHT22;65428;53.194;6.132;2024-02-14T05:08:09;9.90;99.90
76567;DHT22;65428;53.194;6.132;2024-02-14T05:10:35;9.90;99.90
76567;DHT22;65428;53.194;6.132;2024-02-14T05:13:01;9.60;99.90
76567;DHT22;65428;53.194;6.132;2024-02-14T05:15:27;9.60;99.90
76567;DHT22;65428;53.194;6.132;2024-02-14T05:17:55;9.60;99.90
76567;DHT22;65428;53.194;6.132;2024-02-14T05:20:21;9.60;99.90
76567;DHT22;65428;53.194;6.132;2024-02-14T05:22:47;9.60;99.90
76567;DHT22;65428;53.194;6.132;2024-02-14T05:25:13;10.00;99.90
76567;DHT22;65428;53.194;6.132;2024-02-14T05:27:39;9.50;99.90
76567;DHT22;65428;53.194;6.132;2024-02-14T05:30:05;9.60;99.90
76567;DHT22;65428;53.194;6.132;2024-02-14T05:32:34;9.70;99.90
76567;DHT22;65428;53.194;6.132;2024-02-14T05:35:00;9.80;99.90
76567;DHT22;65428;53.194;6.132;2024-02-14T05:37:26;9.70;99.90
76567;DHT22;65428;53.194;6.132;2024-02-14T05:39:53;9.70;99.90
76567;DHT22;65428;53.194;6.132;2024-02-14T05:42:20;9.70;99.90
76567;DHT22;65428;53.194;6.132;2024-02-14T05:44:47;9.70;99.90
76567;DHT22;65428;53.194;6.132;2024-02-14T05:47:12;10.40;99.90
76567;DHT22;65428;53.194;6.132;2024-02-14T05:49:39;9.70;99.90
76567;DHT22;65428;53.194;6.132;2024-02-14T05:52:06;10.10;99.90
76567;DHT22;65428;53.194;6.132;2024-02-14T05:54:32;9.80;99.90
76567;DHT22;65428;53.194;6.132;2024-02-14T05:56:58;9.80;99.90
76567;DHT22;65428;53.194;6.132;2024-02-14T05:59:23;9.80;99.90
76567;DHT22;65428;53.194;6.132;2024-02-14T06:01:49;10.10;99.90
76567;DHT22;65428;53.194;6.132;2024-02-14T06:04:15;9.80;99.90
76567;DHT22;65428;53.194;6.132;2024-02-14T06:06:41;10.30;99.90
76567;DHT22;65428;53.194;6.132;2024-02-14T06:09:07;9.80;99.90
76567;DHT22;65428;53.194;6.132;2024-02-14T06:11:36;10.10;99.90
76567;DHT22;65428;53.194;6.132;2024-02-14T06:14:07;9.90;99.90
76567;DHT22;65428;53.194;6.132;2024-02-14T06:16:34;9.90;99.90
76567;DHT22;65428;53.194;6.132;2024-02-14T06:19:00;10.50;99.90
76567;DHT22;65428;53.194;6.132;2024-02-14T06:21:26;10.20;99.90
76567;DHT22;65428;53.194;6.132;2024-02-14T06:23:53;10.00;99.90
76567;DHT22;65428;53.194;6.132;2024-02-14T06:26:18;9.90;99.90
76567;DHT22;65428;53.194;6.132;2024-02-14T06:28:45;10.10;99.90
76567;DHT22;65428;53.194;6.132;2024-02-14T06:31:10;10.30;99.90
76567;DHT22;65428;53.194;6.132;2024-02-14T06:33:36;10.00;99.90
76567;DHT22;65428;53.194;6.132;2024-02-14T06:36:03;10.30;99.90
76567;DHT22;65428;53.194;6.132;2024-02-14T06:38:32;9.90;99.90
76567;DHT22;65428;53.194;6.132;2024-02-14T06:40:57;10.00;99.90
76567;DHT22;65428;53.194;6.132;2024-02-14T06:43:23;9.90;99.90
76567;DHT22;65428;53.194;6.132;2024-02-14T06:45:49;9.70;99.90
76567;DHT22;65428;53.194;6.132;2024-02-14T06:48:14;9.90;99.90
76567;DHT22;65428;53.194;6.132;2024-02-14T06:50:40;10.00;99.90
76567;DHT22;65428;53.194;6.132;2024-02-14T06:53:06;10.00;99.90
76567;DHT22;65428;53.194;6.132;2024-02-14T06:55:32;10.00;99.90
76567;DHT22;65428;53.194;6.132;2024-02-14T06:57:59;10.00;99.90
76567;DHT22;65428;53.194;6.132;2024-02-14T07:00:25;10.40;99.90
76567;DHT22;65428;53.194;6.132;2024-02-14T07:02:51;10.20;99.90
76567;DHT22;65428;53.194;6.132;2024-02-14T07:05:17;10.00;99.90
76567;DHT22;65428;53.194;6.132;2024-02-14T07:07:42;10.60;99.90
76567;DHT22;65428;53.194;6.132;2024-02-14T07:10:09;9.90;99.90
76567;DHT22;65428;53.194;6.132;2024-02-14T07:12:34;10.00;99.90
76567;DHT22;65428;53.194;6.132;2024-02-14T07:15:02;10.00;99.90
76567;DHT22;65428;53.194;6.132;2024-02-14T07:17:30;10.00;99.90
76567;DHT22;65428;53.194;6.132;2024-02-14T07:19:55;10.00;99.90
76567;DHT22;65428;53.194;6.132;2024-02-14T07:22:21;10.10;99.90
76567;DHT22;65428;53.194;6.132;2024-02-14T07:24:47;10.30;99.90
76567;DHT22;65428;53.194;6.132;2024-02-14T07:27:14;10.20;99.90
76567;DHT22;65428;53.194;6.132;2024-02-14T07:29:40;10.20;99.90
76567;DHT22;65428;53.194;6.132;2024-02-14T07:32:06;10.00;99.90
76567;DHT22;65428;53.194;6.132;2024-02-14T07:34:32;10.00;99.90
76567;DHT22;65428;53.194;6.132;2024-02-14T07:36:58;10.00;99.90
76567;DHT22;65428;53.194;6.132;2024-02-14T07:39:24;10.00;99.90
76567;DHT22;65428;53.194;6.132;2024-02-14T07:41:50;10.00;99.90
76567;DHT22;65428;53.194;6.132;2024-02-14T07:44:16;10.10;99.90
76567;DHT22;65428;53.194;6.132;2024-02-14T07:46:42;10.00;99.90
76567;DHT22;65428;53.194;6.132;2024-02-14T07:49:08;10.00;99.90
76567;DHT22;65428;53.194;6.132;2024-02-14T07:51:35;10.20;99.90
76567;DHT22;65428;53.194;6.132;2024-02-14T07:54:04;10.40;99.90
76567;DHT22;65428;53.194;6.132;2024-02-14T07:56:30;10.10;99.90
76567;DHT22;65428;53.194;6.132;2024-02-14T07:58:56;9.90;99.90
76567;DHT22;65428;53.194;6.132;2024-02-14T08:01:22;10.40;99.90
76567;DHT22;65428;53.194;6.132;2024-02-14T08:03:47;10.50;99.90
76567;DHT22;65428;53.194;6.132;2024-02-14T08:06:14;10.20;99.90
76567;DHT22;65428;53.194;6.132;2024-02-14T08:08:39;10.20;99.90
76567;DHT22;65428;53.194;6.132;2024-02-14T08:11:05;10.40;99.90
76567;DHT22;65428;53.194;6.132;2024-02-14T08:13:31;10.20;99.90
76567;DHT22;65428;53.194;6.132;2024-02-14T08:15:57;10.50;99.90
76567;DHT22;65428;53.194;6.132;2024-02-14T08:18:24;10.30;99.90
76567;DHT22;65428;53.194;6.132;2024-02-14T08:20:50;10.30;99.90
76567;DHT22;65428;53.194;6.132;2024-02-14T08:23:16;10.40;99.90
76567;DHT22;65428;53.194;6.132;2024-02-14T08:25:42;10.20;99.90
76567;DHT22;65428;53.194;6.132;2024-02-14T08:28:08;10.60;99.90
76567;DHT22;65428;53.194;6.132;2024-02-14T08:30:34;10.20;99.90
76567;DHT22;65428;53.194;6.132;2024-02-14T08:33:00;10.30;99.90
76567;DHT22;65428;53.194;6.132;2024-02-14T08:35:26;10.30;99.90
76567;DHT22;65428;53.194;6.132;2024-02-14T08:37:51;10.30;99.90
76567;DHT22;65428;53.194;6.132;2024-02-14T08:40:17;10.30;99.90
76567;DHT22;65428;53.194;6.132;2024-02-14T08:42:43;10.30;99.90
76567;DHT22;65428;53.194;6.132;2024-02-14T08:45:09;10.40;99.90
76567;DHT22;65428;53.194;6.132;2024-02-14T08:47:34;10.40;99.90
76567;DHT22;65428;53.194;6.132;2024-02-14T08:50:00;10.40;99.90
76567;DHT22;65428;53.194;6.132;2024-02-14T08:52:26;10.40;99.90
76567;DHT22;65428;53.194;6.132;2024-02-14T08:54:53;10.40;99.90
76567;DHT22;65428;53.194;6.132;2024-02-14T08:57:18;10.50;99.90
76567;DHT22;65428;53.194;6.132;2024-02-14T08:59:45;10.70;99.90
76567;DHT22;65428;53.194;6.132;2024-02-14T09:02:13;10.50;99.90
76567;DHT22;65428;53.194;6.132;2024-02-14T09:04:40;10.50;99.90
76567;DHT22;65428;53.194;6.132;2024-02-14T09:07:10;10.50;99.90
76567;DHT22;65428;53.194;6.132;2024-02-14T09:09:35;10.50;99.90
76567;DHT22;65428;53.194;6.132;2024-02-14T09:12:04;10.70;99.90
76567;DHT22;65428;53.194;6.132;2024-02-14T09:14:29;10.60;99.90
76567;DHT22;65428;53.194;6.132;2024-02-14T09:16:56;10.70;99.90
76567;DHT22;65428;53.194;6.132;2024-02-14T09:19:22;10.70;99.90
76567;DHT22;65428;53.194;6.132;2024-02-14T09:21:48;10.70;99.90
76567;DHT22;65428;53.194;6.132;2024-02-14T09:24:13;11.00;99.90
76567;DHT22;65428;53.194;6.132;2024-02-14T09:26:39;10.70;99.90
76567;DHT22;65428;53.194;6.132;2024-02-14T09:29:05;10.70;99.90
76567;DHT22;65428;53.194;6.132;2024-02-14T09:31:31;10.70;99.90
76567;DHT22;65428;53.194;6.132;2024-02-14T09:33:57;10.70;99.90
76567;DHT22;65428;53.194;6.132;2024-02-14T09:36:24;10.70;99.90
76567;DHT22;65428;53.194;6.132;2024-02-14T09:38:51;10.70;99.90
76567;DHT22;65428;53.194;6.132;2024-02-14T09:41:37;10.80;99.90
76567;DHT22;65428;53.194;6.132;2024-02-14T09:44:05;10.80;99.90
76567;DHT22;65428;53.194;6.132;2024-02-14T09:46:35;11.10;99.90
76567;DHT22;65428;53.194;6.132;2024-02-14T09:49:03;10.80;99.90
76567;DHT22;65428;53.194;6.132;2024-02-14T09:51:31;10.80;99.90
76567;DHT22;65428;53.194;6.132;2024-02-14T09:53:59;10.80;99.90
76567;DHT22;65428;53.194;6.132;2024-02-14T09:56:25;10.80;99.90
76567;DHT22;65428;53.194;6.132;2024-02-14T09:58:53;11.00;99.90
76567;DHT22;65428;53.194;6.132;2024-02-14T10:01:26;10.80;99.90
76567;DHT22;65428;53.194;6.132;2024-02-14T10:03:53;10.80;99.90
76567;DHT22;65428;53.194;6.132;2024-02-14T10:06:19;11.20;99.90
76567;DHT22;65428;53.194;6.132;2024-02-14T10:08:49;11.00;99.90
76567;DHT22;65428;53.194;6.132;2024-02-14T10:11:19;10.80;99.90
76567;DHT22;65428;53.194;6.132;2024-02-14T10:13:49;10.80;99.90
76567;DHT22;65428;53.194;6.132;2024-02-14T10:16:17;10.90;99.90
76567;DHT22;65428;53.194;6.132;2024-02-14T10:18:45;10.90;99.90
76567;DHT22;65428;53.194;6.132;2024-02-14T10:21:16;11.00;99.90
76567;DHT22;65428;53.194;6.132;2024-02-14T10:23:44;11.00;99.90
76567;DHT22;65428;53.194;6.132;2024-02-14T10:26:13;11.30;99.90
76567;DHT22;65428;53.194;6.132;2024-02-14T10:28:42;11.00;99.90
76567;DHT22;65428;53.194;6.132;2024-02-14T10:31:10;10.90;99.90
76567;DHT22;65428;53.194;6.132;2024-02-14T10:33:36;11.20;99.90
76567;DHT22;65428;53.194;6.132;2024-02-14T10:36:02;11.00;99.90
76567;DHT22;65428;53.194;6.132;2024-02-14T10:38:31;11.10;99.90
76567;DHT22;65428;53.194;6.132;2024-02-14T10:41:01;11.10;99.90
76567;DHT22;65428;53.194;6.132;2024-02-14T10:43:27;11.10;99.90
76567;DHT22;65428;53.194;6.132;2024-02-14T10:46:00;11.10;99.90
76567;DHT22;65428;53.194;6.132;2024-02-14T10:48:29;11.10;99.90
76567;DHT22;65428;53.194;6.132;2024-02-14T10:50:59;11.10;99.90
76567;DHT22;65428;53.194;6.132;2024-02-14T10:53:29;11.20;99.90
76567;DHT22;65428;53.194;6.132;2024-02-14T10:55:57;11.10;99.90
76567;DHT22;65428;53.194;6.132;2024-02-14T10:58:24;11.20;99.90
76567;DHT22;65428;53.194;6.132;2024-02-14T11:00:52;11.20;99.90
76567;DHT22;65428;53.194;6.132;2024-02-14T11:03:18;11.20;99.90
76567;DHT22;65428;53.194;6.132;2024-02-14T11:05:48;11.20;99.90
76567;DHT22;65428;53.194;6.132;2024-02-14T11:08:14;11.40;99.90
76567;DHT22;65428;53.194;6.132;2024-02-14T11:10:40;11.30;99.90
76567;DHT22;65428;53.194;6.132;2024-02-14T11:13:12;11.20;99.90
76567;DHT22;65428;53.194;6.132;2024-02-14T11:15:39;11.60;99.90
76567;DHT22;65428;53.194;6.132;2024-02-14T11:18:06;11.30;99.90
76567;DHT22;65428;53.194;6.132;2024-02-14T11:20:36;11.30;99.90
76567;DHT22;65428;53.194;6.132;2024-02-14T11:23:02;11.30;99.90
76567;DHT22;65428;53.194;6.132;2024-02-14T11:25:38;11.20;99.90
76567;DHT22;65428;53.194;6.132;2024-02-14T11:28:16;11.40;99.90
76567;DHT22;65428;53.194;6.132;2024-02-14T11:30:43;11.30;99.90
76567;DHT22;65428;53.194;6.132;2024-02-14T11:33:22;11.30;99.90
76567;DHT22;65428;53.194;6.132;2024-02-14T11:35:53;11.30;99.90
76567;DHT22;65428;53.194;6.132;2024-02-14T11:38:23;11.30;99.90
76567;DHT22;65428;53.194;6.132;2024-02-14T11:40:54;11.30;99.90
76567;DHT22;65428;53.194;6.132;2024-02-14T11:43:22;11.30;99.90
76567;DHT22;65428;53.194;6.132;2024-02-14T11:45:48;11.30;99.90
76567;DHT22;65428;53.194;6.132;2024-02-14T11:48:16;11.30;99.90
76567;DHT22;65428;53.194;6.132;2024-02-14T11:50:44;11.30;99.90
76567;DHT22;65428;53.194;6.132;2024-02-14T11:53:11;11.30;99.90
76567;DHT22;65428;53.194;6.132;2024-02-14T11:55:37;11.30;99.90
76567;DHT22;65428;53.194;6.132;2024-02-14T11:58:10;11.30;99.90
76567;DHT22;65428;53.194;6.132;2024-02-14T12:00:46;11.40;99.90
76567;DHT22;65428;53.194;6.132;2024-02-14T12:03:20;11.40;99.90
76567;DHT22;65428;53.194;6.132;2024-02-14T12:05:55;11.40;99.90
76567;DHT22;65428;53.194;6.132;2024-02-14T12:08:23;11.70;99.90
76567;DHT22;65428;53.194;6.132;2024-02-14T12:10:49;11.60;99.90
76567;DHT22;65428;53.194;6.132;2024-02-14T12:13:16;11.40;99.90
76567;DHT22;65428;53.194;6.132;2024-02-14T12:15:47;11.60;99.90
76567;DHT22;65428;53.194;6.132;2024-02-14T12:18:13;11.40;99.90
76567;DHT22;65428;53.194;6.132;2024-02-14T12:20:40;11.60;99.90
76567;DHT22;65428;53.194;6.132;2024-02-14T12:23:06;11.40;99.90
76567;DHT22;65428;53.194;6.132;2024-02-14T12:25:33;11.80;99.90
76567;DHT22;65428;53.194;6.132;2024-02-14T12:27:59;11.50;99.90
76567;DHT22;65428;53.194;6.132;2024-02-14T12:30:46;11.50;99.90
76567;DHT22;65428;53.194;6.132;2024-02-14T12:33:14;11.50;99.90
76567;DHT22;65428;53.194;6.132;2024-02-14T12:35:47;11.10;99.90
76567;DHT22;65428;53.194;6.132;2024-02-14T12:38:14;11.90;99.90
76567;DHT22;65428;53.194;6.132;2024-02-14T12:40:41;11.50;99.90
76567;DHT22;65428;53.194;6.132;2024-02-14T12:43:14;11.50;99.90
76567;DHT22;65428;53.194;6.132;2024-02-14T12:45:41;11.50;99.90
76567;DHT22;65428;53.194;6.132;2024-02-14T12:48:08;11.50;99.90
76567;DHT22;65428;53.194;6.132;2024-02-14T12:50:35;11.80;99.90
76567;DHT22;65428;53.194;6.132;2024-02-14T12:53:01;11.50;99.90
76567;DHT22;65428;53.194;6.132;2024-02-14T12:55:28;11.60;99.90
76567;DHT22;65428;53.194;6.132;2024-02-14T12:57:57;11.50;99.90
76567;DHT22;65428;53.194;6.132;2024-02-14T13:00:23;11.50;99.90
76567;DHT22;65428;53.194;6.132;2024-02-14T13:02:50;11.60;99.90
76567;DHT22;65428;53.194;6.132;2024-02-14T13:05:16;11.50;99.90
76567;DHT22;65428;53.194;6.132;2024-02-14T13:07:43;11.50;99.90
76567;DHT22;65428;53.194;6.132;2024-02-14T13:10:09;11.60;99.90
76567;DHT22;65428;53.194;6.132;2024-02-14T13:12:36;11.50;99.90
76567;DHT22;65428;53.194;6.132;2024-02-14T13:15:03;11.70;99.90
76567;DHT22;65428;53.194;6.132;2024-02-14T13:17:29;11.50;99.90
76567;DHT22;65428;53.194;6.132;2024-02-14T13:19:55;11.50;99.90
76567;DHT22;65428;53.194;6.132;2024-02-14T13:22:21;11.50;99.90
76567;DHT22;65428;53.194;6.132;2024-02-14T13:24:47;11.50;99.90
76567;DHT22;65428;53.194;6.132;2024-02-14T13:27:12;11.50;99.90
76567;DHT22;65428;53.194;6.132;2024-02-14T13:29:39;11.60;99.90
76567;DHT22;65428;53.194;6.132;2024-02-14T13:32:05;11.40;99.90
76567;DHT22;65428;53.194;6.132;2024-02-14T13:34:33;11.40;99.90
76567;DHT22;65428;53.194;6.132;2024-02-14T13:37:00;11.40;99.90
76567;DHT22;65428;53.194;6.132;2024-02-14T13:39:25;11.60;99.90
76567;DHT22;65428;53.194;6.132;2024-02-14T13:41:51;11.40;99.90
76567;DHT22;65428;53.194;6.132;2024-02-14T13:44:18;11.40;99.90
76567;DHT22;65428;53.194;6.132;2024-02-14T13:46:45;11.40;99.90
76567;DHT22;65428;53.194;6.132;2024-02-14T13:49:11;11.70;99.90
76567;DHT22;65428;53.194;6.132;2024-02-14T13:51:38;11.50;99.90
76567;DHT22;65428;53.194;6.132;2024-02-14T13:54:04;11.50;99.90
76567;DHT22;65428;53.194;6.132;2024-02-14T13:56:30;11.60;99.90
76567;DHT22;65428;53.194;6.132;2024-02-14T13:58:55;11.60;99.90
76567;DHT22;65428;53.194;6.132;2024-02-14T14:01:21;11.60;99.90
76567;DHT22;65428;53.194;6.132;2024-02-14T14:03:47;11.70;99.90
76567;DHT22;65428;53.194;6.132;2024-02-14T14:06:15;11.60;99.90
76567;DHT22;65428;53.194;6.132;2024-02-14T14:08:41;11.60;99.90
76567;DHT22;65428;53.194;6.132;2024-02-14T14:11:07;11.70;99.90
76567;DHT22;65428;53.194;6.132;2024-02-14T14:13:34;11.90;99.90
76567;DHT22;65428;53.194;6.132;2024-02-14T14:16:00;11.90;99.90
76567;DHT22;65428;53.194;6.132;2024-02-14T14:18:26;11.70;99.90
76567;DHT22;65428;53.194;6.132;2024-02-14T14:20:52;12.10;99.90
76567;DHT22;65428;53.194;6.132;2024-02-14T14:23:18;12.00;99.90
76567;DHT22;65428;53.194;6.132;2024-02-14T14:25:44;11.70;99.90
76567;DHT22;65428;53.194;6.132;2024-02-14T14:28:09;11.70;99.90
76567;DHT22;65428;53.194;6.132;2024-02-14T14:30:36;11.70;99.90
76567;DHT22;65428;53.194;6.132;2024-02-14T14:33:05;11.70;99.90
76567;DHT22;65428;53.194;6.132;2024-02-14T14:35:31;11.90;99.90
76567;DHT22;65428;53.194;6.132;2024-02-14T14:37:59;11.70;99.90
76567;DHT22;65428;53.194;6.132;2024-02-14T14:40:25;11.90;99.90
76567;DHT22;65428;53.194;6.132;2024-02-14T14:42:52;11.70;99.90
76567;DHT22;65428;53.194;6.132;2024-02-14T14:45:18;11.70;99.90
76567;DHT22;65428;53.194;6.132;2024-02-14T14:47:44;11.80;99.90
76567;DHT22;65428;53.194;6.132;2024-02-14T14:50:10;11.70;99.90
76567;DHT22;65428;53.194;6.132;2024-02-14T14:52:38;11.80;99.90
76567;DHT22;65428;53.194;6.132;2024-02-14T14:55:05;11.80;99.90
76567;DHT22;65428;53.194;6.132;2024-02-14T14:57:30;11.70;99.90
76567;DHT22;65428;53.194;6.132;2024-02-14T14:59:56;12.10;99.90
76567;DHT22;65428;53.194;6.132;2024-02-14T15:02:22;11.60;99.90
76567;DHT22;65428;53.194;6.132;2024-02-14T15:04:48;11.70;99.90
76567;DHT22;65428;53.194;6.132;2024-02-14T15:07:13;12.10;99.90
76567;DHT22;65428;53.194;6.132;2024-02-14T15:09:42;11.70;99.90
76567;DHT22;65428;53.194;6.132;2024-02-14T15:12:08;11.70;99.90
76567;DHT22;65428;53.194;6.132;2024-02-14T15:14:33;11.70;99.90
76567;DHT22;65428;53.194;6.132;2024-02-14T15:16:59;11.70;99.90
76567;DHT22;65428;53.194;6.132;2024-02-14T15:19:25;11.60;99.90
76567;DHT22;65428;53.194;6.132;2024-02-14T15:21:51;11.90;99.90
76567;DHT22;65428;53.194;6.132;2024-02-14T15:24:17;11.60;99.90
76567;DHT22;65428;53.194;6.132;2024-02-14T15:26:43;11.60;99.90
76567;DHT22;65428;53.194;6.132;2024-02-14T15:29:25;11.60;99.90
76567;DHT22;65428;53.194;6.132;2024-02-14T15:32:10;11.60;99.90
76567;DHT22;65428;53.194;6.132;2024-02-14T15:34:54;11.60;99.90
76567;DHT22;65428;53.194;6.132;2024-02-14T15:37:22;11.60;99.90